sensor_id;sensor_type;location;lat;lon;timestamp;P1;durP1;ratioP1;P2;durP2;ratioP2
25715;SDS011;13573;50.936;4.328;2023-04-25T00:01:53;17.00;;;4.67;;
25715;SDS011;13573;50.936;4.328;2023-04-25T00:04:20;19.00;;;4.40;;
25715;SDS011;13573;50.936;4.328;2023-04-25T00:06:47;13.93;;;4.43;;
25715;SDS011;13573;50.936;4.328;2023-04-25T00:09:14;12.60;;;4.80;;
25715;SDS011;13573;50.936;4.328;2023-04-25T00:11:41;22.40;;;5.07;;
25715;SDS011;13573;50.936;4.328;2023-04-25T00:14:08;15.43;;;4.53;;
25715;SDS011;13573;50.936;4.328;2023-04-25T00:16:35;24.23;;;4.80;;
25715;SDS011;13573;50.936;4.328;2023-04-25T00:19:02;22.17;;;5.37;;
25715;SDS011;13573;50.936;4.328;2023-04-25T00:21:29;13.43;;;4.13;;
25715;SDS011;13573;50.936;4.328;2023-04-25T00:23:57;19.17;;;4.70;;
25715;SDS011;13573;50.936;4.328;2023-04-25T00:26:23;16.23;;;4.20;;
25715;SDS011;13573;50.936;4.328;2023-04-25T00:28:50;21.60;;;4.80;;
25715;SDS011;13573;50.936;4.328;2023-04-25T00:31:17;22.57;;;5.07;;
25715;SDS011;13573;50.936;4.328;2023-04-25T00:33:44;15.47;;;4.60;;
25715;SDS011;13573;50.936;4.328;2023-04-25T00:36:10;21.70;;;5.13;;
25715;SDS011;13573;50.936;4.328;2023-04-25T00:38:37;19.30;;;4.97;;
25715;SDS011;13573;50.936;4.328;2023-04-25T00:41:04;15.73;;;4.40;;
25715;SDS011;13573;50.936;4.328;2023-04-25T00:43:33;18.60;;;4.90;;
25715;SDS011;13573;50.936;4.328;2023-04-25T00:46:00;18.23;;;5.33;;
25715;SDS011;13573;50.936;4.328;2023-04-25T00:48:27;21.10;;;5.20;;
25715;SDS011;13573;50.936;4.328;2023-04-25T00:50:55;19.77;;;4.90;;
25715;SDS011;13573;50.936;4.328;2023-04-25T00:53:24;18.60;;;4.83;;
25715;SDS011;13573;50.936;4.328;2023-04-25T00:55:52;23.70;;;5.27;;
25715;SDS011;13573;50.936;4.328;2023-04-25T00:58:20;19.37;;;4.80;;
25715;SDS011;13573;50.936;4.328;2023-04-25T01:00:48;17.27;;;4.93;;
25715;SDS011;13573;50.936;4.328;2023-04-25T01:03:16;14.07;;;4.63;;
25715;SDS011;13573;50.936;4.328;2023-04-25T01:05:45;19.13;;;4.67;;
25715;SDS011;13573;50.936;4.328;2023-04-25T01:08:12;22.63;;;4.93;;
25715;SDS011;13573;50.936;4.328;2023-04-25T01:10:40;20.37;;;4.57;;
25715;SDS011;13573;50.936;4.328;2023-04-25T01:13:06;12.97;;;4.47;;
25715;SDS011;13573;50.936;4.328;2023-04-25T01:15:33;19.87;;;4.60;;
25715;SDS011;13573;50.936;4.328;2023-04-25T01:18:01;22.47;;;4.60;;
25715;SDS011;13573;50.936;4.328;2023-04-25T01:20:28;15.10;;;4.73;;
25715;SDS011;13573;50.936;4.328;2023-04-25T01:22:55;13.83;;;4.40;;
25715;SDS011;13573;50.936;4.328;2023-04-25T01:25:22;22.77;;;4.77;;
25715;SDS011;13573;50.936;4.328;2023-04-25T01:27:49;21.30;;;5.20;;
25715;SDS011;13573;50.936;4.328;2023-04-25T01:30:16;23.10;;;5.70;;
25715;SDS011;13573;50.936;4.328;2023-04-25T01:32:43;20.53;;;4.57;;
25715;SDS011;13573;50.936;4.328;2023-04-25T01:35:10;18.43;;;4.70;;
25715;SDS011;13573;50.936;4.328;2023-04-25T01:37:39;19.97;;;4.60;;
25715;SDS011;13573;50.936;4.328;2023-04-25T01:40:08;18.50;;;5.07;;
25715;SDS011;13573;50.936;4.328;2023-04-25T01:42:35;20.17;;;4.37;;
25715;SDS011;13573;50.936;4.328;2023-04-25T01:45:03;14.07;;;5.70;;
25715;SDS011;13573;50.936;4.328;2023-04-25T01:47:31;23.73;;;5.47;;
25715;SDS011;13573;50.936;4.328;2023-04-25T01:49:58;24.47;;;4.93;;
25715;SDS011;13573;50.936;4.328;2023-04-25T01:52:24;25.40;;;4.77;;
25715;SDS011;13573;50.936;4.328;2023-04-25T01:54:51;23.47;;;5.20;;
25715;SDS011;13573;50.936;4.328;2023-04-25T01:57:19;21.00;;;5.23;;
25715;SDS011;13573;50.936;4.328;2023-04-25T01:59:46;18.93;;;5.80;;
25715;SDS011;13573;50.936;4.328;2023-04-25T02:02:12;20.47;;;5.27;;
25715;SDS011;13573;50.936;4.328;2023-04-25T02:04:39;22.90;;;5.37;;
25715;SDS011;13573;50.936;4.328;2023-04-25T02:07:06;17.37;;;5.07;;
25715;SDS011;13573;50.936;4.328;2023-04-25T02:09:32;20.47;;;4.93;;
25715;SDS011;13573;50.936;4.328;2023-04-25T02:11:59;18.33;;;5.60;;
25715;SDS011;13573;50.936;4.328;2023-04-25T02:14:26;19.83;;;4.37;;
25715;SDS011;13573;50.936;4.328;2023-04-25T02:16:53;24.17;;;5.90;;
25715;SDS011;13573;50.936;4.328;2023-04-25T02:19:19;25.83;;;5.30;;
25715;SDS011;13573;50.936;4.328;2023-04-25T02:21:46;16.53;;;5.00;;
25715;SDS011;13573;50.936;4.328;2023-04-25T02:24:12;20.67;;;4.80;;
25715;SDS011;13573;50.936;4.328;2023-04-25T02:26:39;21.83;;;4.87;;
25715;SDS011;13573;50.936;4.328;2023-04-25T02:29:06;19.83;;;5.10;;
25715;SDS011;13573;50.936;4.328;2023-04-25T02:31:32;19.00;;;4.33;;
25715;SDS011;13573;50.936;4.328;2023-04-25T02:33:59;26.53;;;5.97;;
25715;SDS011;13573;50.936;4.328;2023-04-25T02:36:26;25.37;;;5.13;;
25715;SDS011;13573;50.936;4.328;2023-04-25T02:38:53;10.50;;;4.13;;
25715;SDS011;13573;50.936;4.328;2023-04-25T02:41:19;22.67;;;4.63;;
25715;SDS011;13573;50.936;4.328;2023-04-25T02:43:46;17.73;;;5.00;;
25715;SDS011;13573;50.936;4.328;2023-04-25T02:46:13;27.50;;;5.53;;
25715;SDS011;13573;50.936;4.328;2023-04-25T02:48:40;25.07;;;4.90;;
25715;SDS011;13573;50.936;4.328;2023-04-25T02:51:07;32.97;;;4.93;;
25715;SDS011;13573;50.936;4.328;2023-04-25T02:53:34;21.17;;;5.47;;
25715;SDS011;13573;50.936;4.328;2023-04-25T02:56:01;19.17;;;5.27;;
25715;SDS011;13573;50.936;4.328;2023-04-25T02:58:27;21.27;;;4.57;;
25715;SDS011;13573;50.936;4.328;2023-04-25T03:00:54;14.90;;;4.17;;
25715;SDS011;13573;50.936;4.328;2023-04-25T03:03:20;20.93;;;4.87;;
25715;SDS011;13573;50.936;4.328;2023-04-25T03:05:48;21.67;;;5.27;;
25715;SDS011;13573;50.936;4.328;2023-04-25T03:08:17;25.23;;;5.13;;
25715;SDS011;13573;50.936;4.328;2023-04-25T03:10:44;17.33;;;4.33;;
25715;SDS011;13573;50.936;4.328;2023-04-25T03:13:10;19.93;;;4.80;;
25715;SDS011;13573;50.936;4.328;2023-04-25T03:15:37;19.47;;;4.93;;
25715;SDS011;13573;50.936;4.328;2023-04-25T03:18:05;23.13;;;5.47;;
25715;SDS011;13573;50.936;4.328;2023-04-25T03:20:31;18.50;;;4.97;;
25715;SDS011;13573;50.936;4.328;2023-04-25T03:22:58;26.97;;;5.00;;
25715;SDS011;13573;50.936;4.328;2023-04-25T03:25:25;16.57;;;4.30;;
25715;SDS011;13573;50.936;4.328;2023-04-25T03:27:51;25.57;;;5.37;;
25715;SDS011;13573;50.936;4.328;2023-04-25T03:30:18;27.17;;;5.40;;
25715;SDS011;13573;50.936;4.328;2023-04-25T03:32:44;19.43;;;5.27;;
25715;SDS011;13573;50.936;4.328;2023-04-25T03:35:11;20.43;;;5.67;;
25715;SDS011;13573;50.936;4.328;2023-04-25T03:37:37;20.67;;;5.13;;
25715;SDS011;13573;50.936;4.328;2023-04-25T03:40:06;16.77;;;4.87;;
25715;SDS011;13573;50.936;4.328;2023-04-25T03:42:33;17.23;;;4.33;;
25715;SDS011;13573;50.936;4.328;2023-04-25T03:44:59;22.70;;;4.97;;
25715;SDS011;13573;50.936;4.328;2023-04-25T03:47:26;17.13;;;4.83;;
25715;SDS011;13573;50.936;4.328;2023-04-25T03:49:53;23.33;;;4.97;;
25715;SDS011;13573;50.936;4.328;2023-04-25T03:52:20;20.87;;;5.27;;
25715;SDS011;13573;50.936;4.328;2023-04-25T03:54:46;21.90;;;4.67;;
25715;SDS011;13573;50.936;4.328;2023-04-25T03:57:14;23.10;;;5.13;;
25715;SDS011;13573;50.936;4.328;2023-04-25T03:59:40;22.87;;;4.60;;
25715;SDS011;13573;50.936;4.328;2023-04-25T04:02:06;28.40;;;7.13;;
25715;SDS011;13573;50.936;4.328;2023-04-25T04:04:33;26.90;;;5.10;;
25715;SDS011;13573;50.936;4.328;2023-04-25T04:07:00;15.13;;;4.13;;
25715;SDS011;13573;50.936;4.328;2023-04-25T04:09:26;12.07;;;4.47;;
25715;SDS011;13573;50.936;4.328;2023-04-25T04:11:53;22.87;;;4.30;;
25715;SDS011;13573;50.936;4.328;2023-04-25T04:14:20;15.17;;;3.87;;
25715;SDS011;13573;50.936;4.328;2023-04-25T04:16:47;24.43;;;4.97;;
25715;SDS011;13573;50.936;4.328;2023-04-25T04:19:13;19.10;;;3.97;;
25715;SDS011;13573;50.936;4.328;2023-04-25T04:21:40;18.83;;;4.57;;
25715;SDS011;13573;50.936;4.328;2023-04-25T04:24:07;32.47;;;4.90;;
25715;SDS011;13573;50.936;4.328;2023-04-25T04:26:33;18.17;;;4.63;;
25715;SDS011;13573;50.936;4.328;2023-04-25T04:29:00;19.30;;;5.37;;
25715;SDS011;13573;50.936;4.328;2023-04-25T04:31:27;14.73;;;5.07;;
25715;SDS011;13573;50.936;4.328;2023-04-25T04:33:53;17.80;;;4.83;;
25715;SDS011;13573;50.936;4.328;2023-04-25T04:36:20;24.20;;;4.63;;
25715;SDS011;13573;50.936;4.328;2023-04-25T04:38:49;18.37;;;5.33;;
25715;SDS011;13573;50.936;4.328;2023-04-25T04:41:15;22.40;;;5.40;;
25715;SDS011;13573;50.936;4.328;2023-04-25T04:43:43;26.80;;;5.27;;
25715;SDS011;13573;50.936;4.328;2023-04-25T04:46:09;18.77;;;5.53;;
25715;SDS011;13573;50.936;4.328;2023-04-25T04:48:36;17.67;;;4.30;;
25715;SDS011;13573;50.936;4.328;2023-04-25T04:51:02;13.80;;;4.17;;
25715;SDS011;13573;50.936;4.328;2023-04-25T04:53:29;11.70;;;4.30;;
25715;SDS011;13573;50.936;4.328;2023-04-25T04:55:55;17.60;;;4.10;;
25715;SDS011;13573;50.936;4.328;2023-04-25T04:58:22;12.97;;;3.90;;
25715;SDS011;13573;50.936;4.328;2023-04-25T05:00:49;13.60;;;3.70;;
25715;SDS011;13573;50.936;4.328;2023-04-25T05:03:16;17.97;;;4.57;;
25715;SDS011;13573;50.936;4.328;2023-04-25T05:05:42;9.37;;;4.00;;
25715;SDS011;13573;50.936;4.328;2023-04-25T05:08:09;13.00;;;3.97;;
25715;SDS011;13573;50.936;4.328;2023-04-25T05:10:36;13.60;;;3.47;;
25715;SDS011;13573;50.936;4.328;2023-04-25T05:13:02;14.70;;;3.73;;
25715;SDS011;13573;50.936;4.328;2023-04-25T05:15:29;20.70;;;5.33;;
25715;SDS011;13573;50.936;4.328;2023-04-25T05:17:56;9.73;;;3.70;;
25715;SDS011;13573;50.936;4.328;2023-04-25T05:20:22;11.63;;;4.27;;
25715;SDS011;13573;50.936;4.328;2023-04-25T05:22:49;13.57;;;3.80;;
25715;SDS011;13573;50.936;4.328;2023-04-25T05:25:16;15.30;;;4.60;;
25715;SDS011;13573;50.936;4.328;2023-04-25T05:27:43;26.13;;;4.33;;
25715;SDS011;13573;50.936;4.328;2023-04-25T05:30:09;15.93;;;4.10;;
25715;SDS011;13573;50.936;4.328;2023-04-25T05:32:36;13.13;;;3.57;;
25715;SDS011;13573;50.936;4.328;2023-04-25T05:35:03;14.30;;;4.00;;
25715;SDS011;13573;50.936;4.328;2023-04-25T05:37:31;13.63;;;4.67;;
25715;SDS011;13573;50.936;4.328;2023-04-25T05:39:59;23.47;;;4.43;;
25715;SDS011;13573;50.936;4.328;2023-04-25T05:42:25;13.73;;;4.30;;
25715;SDS011;13573;50.936;4.328;2023-04-25T05:44:52;11.07;;;3.83;;
25715;SDS011;13573;50.936;4.328;2023-04-25T05:47:19;8.43;;;3.53;;
25715;SDS011;13573;50.936;4.328;2023-04-25T05:49:45;13.20;;;4.23;;
25715;SDS011;13573;50.936;4.328;2023-04-25T05:52:12;16.10;;;4.03;;
25715;SDS011;13573;50.936;4.328;2023-04-25T05:54:41;12.10;;;3.63;;
25715;SDS011;13573;50.936;4.328;2023-04-25T05:57:07;12.63;;;3.77;;
25715;SDS011;13573;50.936;4.328;2023-04-25T05:59:34;15.97;;;4.30;;
25715;SDS011;13573;50.936;4.328;2023-04-25T06:02:01;15.97;;;3.53;;
25715;SDS011;13573;50.936;4.328;2023-04-25T06:04:28;14.40;;;3.70;;
25715;SDS011;13573;50.936;4.328;2023-04-25T06:06:55;12.63;;;3.97;;
25715;SDS011;13573;50.936;4.328;2023-04-25T06:09:21;20.93;;;4.27;;
25715;SDS011;13573;50.936;4.328;2023-04-25T06:11:48;16.30;;;4.17;;
25715;SDS011;13573;50.936;4.328;2023-04-25T06:14:15;18.43;;;4.87;;
25715;SDS011;13573;50.936;4.328;2023-04-25T06:16:41;18.93;;;4.47;;
25715;SDS011;13573;50.936;4.328;2023-04-25T06:19:08;14.43;;;4.03;;
25715;SDS011;13573;50.936;4.328;2023-04-25T06:21:35;18.33;;;4.60;;
25715;SDS011;13573;50.936;4.328;2023-04-25T06:24:01;25.87;;;4.60;;
25715;SDS011;13573;50.936;4.328;2023-04-25T06:26:28;20.83;;;4.03;;
25715;SDS011;13573;50.936;4.328;2023-04-25T06:28:55;14.13;;;3.77;;
25715;SDS011;13573;50.936;4.328;2023-04-25T06:31:21;18.07;;;3.67;;
25715;SDS011;13573;50.936;4.328;2023-04-25T06:33:48;18.87;;;4.37;;
25715;SDS011;13573;50.936;4.328;2023-04-25T06:36:15;14.17;;;3.40;;
25715;SDS011;13573;50.936;4.328;2023-04-25T06:38:42;19.00;;;3.90;;
25715;SDS011;13573;50.936;4.328;2023-04-25T06:41:08;19.07;;;4.37;;
25715;SDS011;13573;50.936;4.328;2023-04-25T06:43:35;12.93;;;3.47;;
25715;SDS011;13573;50.936;4.328;2023-04-25T06:46:02;16.37;;;3.57;;
25715;SDS011;13573;50.936;4.328;2023-04-25T06:48:28;12.53;;;3.50;;
25715;SDS011;13573;50.936;4.328;2023-04-25T06:50:55;13.43;;;3.33;;
25715;SDS011;13573;50.936;4.328;2023-04-25T06:53:22;15.80;;;4.03;;
25715;SDS011;13573;50.936;4.328;2023-04-25T06:55:49;11.23;;;3.60;;
25715;SDS011;13573;50.936;4.328;2023-04-25T06:58:16;13.40;;;4.23;;
25715;SDS011;13573;50.936;4.328;2023-04-25T07:00:43;12.10;;;3.47;;
25715;SDS011;13573;50.936;4.328;2023-04-25T07:03:10;15.33;;;3.20;;
25715;SDS011;13573;50.936;4.328;2023-04-25T07:05:37;20.90;;;3.90;;
25715;SDS011;13573;50.936;4.328;2023-04-25T07:08:04;13.00;;;3.50;;
25715;SDS011;13573;50.936;4.328;2023-04-25T07:10:31;12.40;;;3.50;;
25715;SDS011;13573;50.936;4.328;2023-04-25T07:12:57;14.80;;;3.13;;
25715;SDS011;13573;50.936;4.328;2023-04-25T07:15:24;11.10;;;3.00;;
25715;SDS011;13573;50.936;4.328;2023-04-25T07:17:51;11.23;;;3.20;;
25715;SDS011;13573;50.936;4.328;2023-04-25T07:20:18;11.37;;;2.70;;
25715;SDS011;13573;50.936;4.328;2023-04-25T07:22:45;14.73;;;3.20;;
25715;SDS011;13573;50.936;4.328;2023-04-25T07:25:11;12.67;;;3.43;;
25715;SDS011;13573;50.936;4.328;2023-04-25T07:27:38;7.03;;;2.70;;
25715;SDS011;13573;50.936;4.328;2023-04-25T07:30:05;13.43;;;3.00;;
25715;SDS011;13573;50.936;4.328;2023-04-25T07:32:32;11.50;;;3.10;;
25715;SDS011;13573;50.936;4.328;2023-04-25T07:34:59;15.07;;;3.37;;
25715;SDS011;13573;50.936;4.328;2023-04-25T07:37:27;15.17;;;3.00;;
25715;SDS011;13573;50.936;4.328;2023-04-25T07:39:53;9.97;;;2.83;;
25715;SDS011;13573;50.936;4.328;2023-04-25T07:42:20;8.70;;;2.80;;
25715;SDS011;13573;50.936;4.328;2023-04-25T07:44:47;9.93;;;2.50;;
25715;SDS011;13573;50.936;4.328;2023-04-25T07:47:14;10.47;;;2.63;;
25715;SDS011;13573;50.936;4.328;2023-04-25T07:49:41;14.53;;;3.30;;
25715;SDS011;13573;50.936;4.328;2023-04-25T07:52:07;8.10;;;3.07;;
25715;SDS011;13573;50.936;4.328;2023-04-25T07:54:34;10.97;;;2.20;;
25715;SDS011;13573;50.936;4.328;2023-04-25T07:57:01;15.23;;;3.30;;
25715;SDS011;13573;50.936;4.328;2023-04-25T07:59:28;15.37;;;2.57;;
25715;SDS011;13573;50.936;4.328;2023-04-25T08:01:55;13.90;;;2.17;;
25715;SDS011;13573;50.936;4.328;2023-04-25T08:04:23;13.47;;;2.43;;
25715;SDS011;13573;50.936;4.328;2023-04-25T08:06:51;11.17;;;2.67;;
25715;SDS011;13573;50.936;4.328;2023-04-25T08:09:19;9.60;;;2.30;;
25715;SDS011;13573;50.936;4.328;2023-04-25T08:11:46;9.33;;;2.40;;
25715;SDS011;13573;50.936;4.328;2023-04-25T08:14:13;8.83;;;2.03;;
25715;SDS011;13573;50.936;4.328;2023-04-25T08:16:40;10.03;;;2.67;;
25715;SDS011;13573;50.936;4.328;2023-04-25T08:19:07;12.83;;;2.40;;
25715;SDS011;13573;50.936;4.328;2023-04-25T08:21:34;12.67;;;2.63;;
25715;SDS011;13573;50.936;4.328;2023-04-25T08:24:00;11.77;;;2.70;;
25715;SDS011;13573;50.936;4.328;2023-04-25T08:26:28;9.53;;;2.77;;
25715;SDS011;13573;50.936;4.328;2023-04-25T08:28:55;11.97;;;2.13;;
25715;SDS011;13573;50.936;4.328;2023-04-25T08:31:22;15.23;;;2.93;;
25715;SDS011;13573;50.936;4.328;2023-04-25T08:33:48;9.73;;;2.30;;
25715;SDS011;13573;50.936;4.328;2023-04-25T08:36:17;11.97;;;1.93;;
25715;SDS011;13573;50.936;4.328;2023-04-25T08:38:44;9.83;;;2.20;;
25715;SDS011;13573;50.936;4.328;2023-04-25T08:41:11;9.03;;;2.13;;
25715;SDS011;13573;50.936;4.328;2023-04-25T08:43:40;9.47;;;2.03;;
25715;SDS011;13573;50.936;4.328;2023-04-25T08:46:08;8.23;;;1.97;;
25715;SDS011;13573;50.936;4.328;2023-04-25T08:48:34;5.63;;;1.83;;
25715;SDS011;13573;50.936;4.328;2023-04-25T08:51:02;12.90;;;1.77;;
25715;SDS011;13573;50.936;4.328;2023-04-25T08:53:31;12.67;;;1.90;;
25715;SDS011;13573;50.936;4.328;2023-04-25T08:56:00;7.97;;;2.07;;
25715;SDS011;13573;50.936;4.328;2023-04-25T08:58:28;6.30;;;2.03;;
25715;SDS011;13573;50.936;4.328;2023-04-25T09:00:55;8.10;;;1.60;;
25715;SDS011;13573;50.936;4.328;2023-04-25T09:03:22;9.87;;;1.77;;
25715;SDS011;13573;50.936;4.328;2023-04-25T09:05:49;9.73;;;2.47;;
25715;SDS011;13573;50.936;4.328;2023-04-25T09:08:16;8.97;;;2.27;;
25715;SDS011;13573;50.936;4.328;2023-04-25T09:10:43;10.03;;;1.63;;
25715;SDS011;13573;50.936;4.328;2023-04-25T09:13:10;9.87;;;2.00;;
25715;SDS011;13573;50.936;4.328;2023-04-25T09:15:49;13.07;;;2.20;;
25715;SDS011;13573;50.936;4.328;2023-04-25T09:20:53;9.17;;;2.63;;
25715;SDS011;13573;50.936;4.328;2023-04-25T09:23:20;10.00;;;1.93;;
25715;SDS011;13573;50.936;4.328;2023-04-25T09:25:48;10.67;;;1.93;;
25715;SDS011;13573;50.936;4.328;2023-04-25T09:28:15;6.73;;;1.73;;
25715;SDS011;13573;50.936;4.328;2023-04-25T09:30:42;9.77;;;1.80;;
25715;SDS011;13573;50.936;4.328;2023-04-25T09:33:09;11.70;;;1.57;;
25715;SDS011;13573;50.936;4.328;2023-04-25T09:35:37;6.97;;;2.03;;
25715;SDS011;13573;50.936;4.328;2023-04-25T09:38:07;4.90;;;1.20;;
25715;SDS011;13573;50.936;4.328;2023-04-25T09:40:34;8.00;;;1.63;;
25715;SDS011;13573;50.936;4.328;2023-04-25T09:43:09;6.10;;;1.10;;
25715;SDS011;13573;50.936;4.328;2023-04-25T09:45:41;7.03;;;1.47;;
25715;SDS011;13573;50.936;4.328;2023-04-25T09:48:09;8.40;;;1.60;;
25715;SDS011;13573;50.936;4.328;2023-04-25T09:50:35;4.90;;;1.60;;
25715;SDS011;13573;50.936;4.328;2023-04-25T09:53:04;8.77;;;1.83;;
25715;SDS011;13573;50.936;4.328;2023-04-25T09:55:33;7.73;;;1.53;;
25715;SDS011;13573;50.936;4.328;2023-04-25T09:58:03;6.07;;;1.70;;
25715;SDS011;13573;50.936;4.328;2023-04-25T10:00:29;6.00;;;1.43;;
25715;SDS011;13573;50.936;4.328;2023-04-25T10:02:56;8.40;;;1.97;;
25715;SDS011;13573;50.936;4.328;2023-04-25T10:05:27;11.00;;;1.57;;
25715;SDS011;13573;50.936;4.328;2023-04-25T10:07:56;3.63;;;1.33;;
25715;SDS011;13573;50.936;4.328;2023-04-25T10:10:23;10.73;;;1.37;;
25715;SDS011;13573;50.936;4.328;2023-04-25T10:12:52;4.23;;;0.90;;
25715;SDS011;13573;50.936;4.328;2023-04-25T10:15:19;5.60;;;1.07;;
25715;SDS011;13573;50.936;4.328;2023-04-25T10:17:47;3.77;;;1.10;;
25715;SDS011;13573;50.936;4.328;2023-04-25T10:20:14;4.23;;;1.20;;
25715;SDS011;13573;50.936;4.328;2023-04-25T10:22:42;6.87;;;1.27;;
25715;SDS011;13573;50.936;4.328;2023-04-25T10:25:09;10.97;;;1.87;;
25715;SDS011;13573;50.936;4.328;2023-04-25T10:27:38;6.53;;;1.50;;
25715;SDS011;13573;50.936;4.328;2023-04-25T10:30:07;10.40;;;1.20;;
25715;SDS011;13573;50.936;4.328;2023-04-25T10:32:36;10.73;;;1.87;;
25715;SDS011;13573;50.936;4.328;2023-04-25T10:35:10;11.37;;;1.47;;
25715;SDS011;13573;50.936;4.328;2023-04-25T10:37:37;9.47;;;1.70;;
25715;SDS011;13573;50.936;4.328;2023-04-25T10:40:08;6.63;;;1.30;;
25715;SDS011;13573;50.936;4.328;2023-04-25T10:42:35;10.50;;;1.70;;
25715;SDS011;13573;50.936;4.328;2023-04-25T10:45:04;14.47;;;1.60;;
25715;SDS011;13573;50.936;4.328;2023-04-25T10:47:35;6.57;;;1.47;;
25715;SDS011;13573;50.936;4.328;2023-04-25T10:50:05;6.13;;;1.30;;
25715;SDS011;13573;50.936;4.328;2023-04-25T10:52:32;4.87;;;1.20;;
25715;SDS011;13573;50.936;4.328;2023-04-25T10:54:59;8.97;;;1.77;;
25715;SDS011;13573;50.936;4.328;2023-04-25T10:57:28;5.93;;;1.57;;
25715;SDS011;13573;50.936;4.328;2023-04-25T11:00:09;10.20;;;1.77;;
25715;SDS011;13573;50.936;4.328;2023-04-25T11:02:41;7.73;;;1.50;;
25715;SDS011;13573;50.936;4.328;2023-04-25T11:05:09;8.73;;;1.70;;
25715;SDS011;13573;50.936;4.328;2023-04-25T11:07:38;9.63;;;1.83;;
25715;SDS011;13573;50.936;4.328;2023-04-25T11:10:11;8.83;;;1.60;;
25715;SDS011;13573;50.936;4.328;2023-04-25T11:12:38;11.13;;;1.30;;
25715;SDS011;13573;50.936;4.328;2023-04-25T11:15:06;3.17;;;1.40;;
25715;SDS011;13573;50.936;4.328;2023-04-25T11:17:33;7.00;;;1.67;;
25715;SDS011;13573;50.936;4.328;2023-04-25T11:20:00;6.67;;;1.40;;
25715;SDS011;13573;50.936;4.328;2023-04-25T11:22:27;4.80;;;1.73;;
25715;SDS011;13573;50.936;4.328;2023-04-25T11:24:55;5.10;;;1.33;;
25715;SDS011;13573;50.936;4.328;2023-04-25T11:27:22;8.23;;;1.77;;
25715;SDS011;13573;50.936;4.328;2023-04-25T11:29:51;5.47;;;1.87;;
25715;SDS011;13573;50.936;4.328;2023-04-25T11:32:17;2.87;;;1.20;;
25715;SDS011;13573;50.936;4.328;2023-04-25T11:34:44;8.97;;;1.63;;
25715;SDS011;13573;50.936;4.328;2023-04-25T11:37:11;5.60;;;1.50;;
25715;SDS011;13573;50.936;4.328;2023-04-25T11:39:42;7.30;;;1.40;;
25715;SDS011;13573;50.936;4.328;2023-04-25T11:42:07;3.67;;;1.23;;
25715;SDS011;13573;50.936;4.328;2023-04-25T11:44:35;7.07;;;1.43;;
25715;SDS011;13573;50.936;4.328;2023-04-25T11:47:04;7.63;;;1.70;;
25715;SDS011;13573;50.936;4.328;2023-04-25T11:49:30;7.43;;;1.97;;
25715;SDS011;13573;50.936;4.328;2023-04-25T11:51:58;9.70;;;1.73;;
25715;SDS011;13573;50.936;4.328;2023-04-25T11:54:25;3.70;;;1.43;;
25715;SDS011;13573;50.936;4.328;2023-04-25T11:56:51;2.40;;;1.10;;
25715;SDS011;13573;50.936;4.328;2023-04-25T11:59:18;8.83;;;1.60;;
25715;SDS011;13573;50.936;4.328;2023-04-25T12:01:49;3.90;;;1.17;;
25715;SDS011;13573;50.936;4.328;2023-04-25T12:04:18;4.33;;;0.93;;
25715;SDS011;13573;50.936;4.328;2023-04-25T12:06:46;3.57;;;1.20;;
25715;SDS011;13573;50.936;4.328;2023-04-25T12:09:14;8.27;;;1.27;;
25715;SDS011;13573;50.936;4.328;2023-04-25T12:11:44;2.57;;;0.80;;
25715;SDS011;13573;50.936;4.328;2023-04-25T12:16:46;4.67;;;1.03;;
25715;SDS011;13573;50.936;4.328;2023-04-25T12:19:13;6.00;;;0.90;;
25715;SDS011;13573;50.936;4.328;2023-04-25T12:21:41;3.17;;;1.10;;
25715;SDS011;13573;50.936;4.328;2023-04-25T12:24:10;3.03;;;1.20;;
25715;SDS011;13573;50.936;4.328;2023-04-25T12:29:17;1.73;;;1.07;;
25715;SDS011;13573;50.936;4.328;2023-04-25T12:31:44;6.17;;;1.17;;
25715;SDS011;13573;50.936;4.328;2023-04-25T12:34:11;3.90;;;1.10;;
25715;SDS011;13573;50.936;4.328;2023-04-25T12:36:38;5.10;;;1.00;;
25715;SDS011;13573;50.936;4.328;2023-04-25T12:39:05;9.87;;;1.30;;
25715;SDS011;13573;50.936;4.328;2023-04-25T12:41:32;5.63;;;1.40;;
25715;SDS011;13573;50.936;4.328;2023-04-25T12:43:59;9.87;;;1.60;;
25715;SDS011;13573;50.936;4.328;2023-04-25T12:46:26;12.90;;;1.80;;
25715;SDS011;13573;50.936;4.328;2023-04-25T12:48:53;21.13;;;2.00;;
25715;SDS011;13573;50.936;4.328;2023-04-25T12:51:20;19.00;;;1.70;;
25715;SDS011;13573;50.936;4.328;2023-04-25T12:53:49;3.70;;;1.13;;
25715;SDS011;13573;50.936;4.328;2023-04-25T12:56:19;7.47;;;0.97;;
25715;SDS011;13573;50.936;4.328;2023-04-25T12:58:46;6.00;;;1.13;;
25715;SDS011;13573;50.936;4.328;2023-04-25T13:01:14;4.00;;;0.93;;
25715;SDS011;13573;50.936;4.328;2023-04-25T13:03:41;3.13;;;0.90;;
25715;SDS011;13573;50.936;4.328;2023-04-25T13:06:07;3.23;;;1.00;;
25715;SDS011;13573;50.936;4.328;2023-04-25T13:08:34;3.77;;;1.00;;
25715;SDS011;13573;50.936;4.328;2023-04-25T13:11:03;2.93;;;0.90;;
25715;SDS011;13573;50.936;4.328;2023-04-25T13:13:29;4.67;;;1.07;;
25715;SDS011;13573;50.936;4.328;2023-04-25T13:15:57;3.23;;;1.23;;
25715;SDS011;13573;50.936;4.328;2023-04-25T13:18:24;5.77;;;1.03;;
25715;SDS011;13573;50.936;4.328;2023-04-25T13:20:52;4.43;;;0.70;;
25715;SDS011;13573;50.936;4.328;2023-04-25T13:23:19;3.87;;;1.00;;
25715;SDS011;13573;50.936;4.328;2023-04-25T13:25:46;8.00;;;1.43;;
25715;SDS011;13573;50.936;4.328;2023-04-25T13:28:13;8.10;;;1.10;;
25715;SDS011;13573;50.936;4.328;2023-04-25T13:30:40;6.20;;;1.20;;
25715;SDS011;13573;50.936;4.328;2023-04-25T13:33:07;4.37;;;1.50;;
25715;SDS011;13573;50.936;4.328;2023-04-25T13:35:34;7.33;;;1.50;;
25715;SDS011;13573;50.936;4.328;2023-04-25T13:38:01;5.63;;;1.30;;
25715;SDS011;13573;50.936;4.328;2023-04-25T13:40:28;5.70;;;1.20;;
25715;SDS011;13573;50.936;4.328;2023-04-25T13:42:55;9.17;;;1.17;;
25715;SDS011;13573;50.936;4.328;2023-04-25T13:45:22;3.67;;;0.97;;
25715;SDS011;13573;50.936;4.328;2023-04-25T13:47:48;10.90;;;1.87;;
25715;SDS011;13573;50.936;4.328;2023-04-25T13:50:16;7.23;;;1.40;;
25715;SDS011;13573;50.936;4.328;2023-04-25T13:52:43;6.10;;;1.20;;
25715;SDS011;13573;50.936;4.328;2023-04-25T13:55:11;8.70;;;1.17;;
25715;SDS011;13573;50.936;4.328;2023-04-25T13:57:37;5.73;;;0.80;;
25715;SDS011;13573;50.936;4.328;2023-04-25T14:00:04;2.60;;;0.90;;
25715;SDS011;13573;50.936;4.328;2023-04-25T14:02:35;2.90;;;0.93;;
25715;SDS011;13573;50.936;4.328;2023-04-25T14:05:02;3.77;;;1.10;;
25715;SDS011;13573;50.936;4.328;2023-04-25T14:07:30;2.40;;;0.80;;
25715;SDS011;13573;50.936;4.328;2023-04-25T14:09:57;3.27;;;0.97;;
25715;SDS011;13573;50.936;4.328;2023-04-25T14:12:24;5.57;;;1.00;;
25715;SDS011;13573;50.936;4.328;2023-04-25T14:14:52;4.90;;;0.90;;
25715;SDS011;13573;50.936;4.328;2023-04-25T14:17:19;3.97;;;1.20;;
25715;SDS011;13573;50.936;4.328;2023-04-25T14:19:45;4.27;;;1.20;;
25715;SDS011;13573;50.936;4.328;2023-04-25T14:22:14;5.67;;;1.17;;
25715;SDS011;13573;50.936;4.328;2023-04-25T14:24:41;7.97;;;1.20;;
25715;SDS011;13573;50.936;4.328;2023-04-25T14:27:08;4.97;;;1.30;;
25715;SDS011;13573;50.936;4.328;2023-04-25T14:29:35;8.40;;;1.50;;
25715;SDS011;13573;50.936;4.328;2023-04-25T14:32:01;2.57;;;0.93;;
25715;SDS011;13573;50.936;4.328;2023-04-25T14:34:28;4.33;;;1.00;;
25715;SDS011;13573;50.936;4.328;2023-04-25T14:36:55;4.83;;;1.10;;
25715;SDS011;13573;50.936;4.328;2023-04-25T14:39:22;5.37;;;1.17;;
25715;SDS011;13573;50.936;4.328;2023-04-25T14:41:48;10.63;;;1.10;;
25715;SDS011;13573;50.936;4.328;2023-04-25T14:44:15;4.73;;;1.00;;
25715;SDS011;13573;50.936;4.328;2023-04-25T14:46:42;7.53;;;1.27;;
25715;SDS011;13573;50.936;4.328;2023-04-25T14:49:08;8.27;;;0.90;;